Main page
METAR-TAF:

METAR-TAF

Airports :

Honiara International Airport

Honiara, Guadalcanal, Solomon Islands

latitude: 09-25S, longitude: 160-03E, elevation: 8 m

Current weather observation

The report was made 44 minutes ago, at 21:00 UTC
Wind 2 kt from the South
Temperature 26°C
Humidity 89%
Pressure 1011 hPa
Visibility 10 km or more
Few clouds at a height of 1600 ft
Scattered clouds at a height of 30000 ft

METAR: AGGH 022100Z 18002KT 9999 FEW016 SCT300 26/24 Q1011

Time: 08:44 (21:44 UTC)

Forecast

The report was made 4 hours and 34 minutes ago, at 17:10 UTC
Forecast valid from 02 at 18 UTC to 03 at 18 UTC
Wind 10 kt from the Northeast
Visibility 10 km or more
Scattered clouds at a height of 1800 ft
Probability 40%
between IN and TE UTC
Visibility: 1010 m
Scattered clouds at a height of 1700 ft
Few clouds at a height of 1800 ft, Cumulonimbus.
thunderstorm

TAF: AGGH 021710Z 0218/0318 05010KT 9999 SCT018 PROB40 INTER 0304/0306 9999 TS SCT017 FEW018CB T 24 27 31 32 Q 1010 1012 1011 1010

Weather observations and forecasts of more than 4000 airports (METAR and TAF reports).

The available stations are represented by yellow and red dots on the map.

Hover mouse over dot to see the name of the station.

Then click to see weather observations and forecasts.

To change the map : click on the green buttons with a black cross to zoom in, on the green button with a dash to zoom out, or on the green arrows for adjacent maps.


METAR-TAF: